Currently 59°F in Simi Valley, California, USA
59°F
65°F / 59°F
3 mph SW
0.00"
Wednesday, April 26, 2017 6:39 AM PDT

Simi Valley, California Weather Summary
Last 36 Hours

Temperature Winds Hourly Humidity Dewpoint
Time Report Norm Report Norm Max Gusts Precip. Rpt. Norm Rpt. Norm Pressure
1,3Wed 06:39 AM  59.5°F  54°F  3 mph SW  4 mph  5 mph  0.00"  54%  69%  42°F  44°F  29.88"
Wed 06:00 AM  60.9°F  55°F  calm  3 mph  7 mph  0.00"  49%  69%  41°F  44°F  29.87"
Wed 05:00 AM  64.3°F  55°F  2 mph W  3 mph  21 mph  0.00"  42%  68%  40°F  44°F  29.85"
2Wed 04:39 AM  65.0°F  55°F  2 mph SE  4 mph  16 mph  ----  41%  68%  40°F  44°F  29.85"
Wed 04:00 AM  64.3°F  55°F  11 mph SE  3 mph  20 mph  0.00"  41%  68%  39°F  45°F  29.86"
Wed 03:00 AM  63.9°F  56°F  10 mph E  3 mph  22 mph  0.00"  45%  68%  41°F  45°F  29.86"
Wed 02:00 AM  63.1°F  56°F  7 mph NW  3 mph  21 mph  0.00"  46%  68%  41°F  45°F  29.88"
Wed 01:00 AM  63.8°F  57°F  9 mph E  3 mph  21 mph  0.00"  44%  67%  41°F  46°F  29.89"
Wed 12:00 AM  62.6°F  57°F  10 mph NE  2 mph  17 mph  0.00"  46%  66%  40°F  46°F  29.89"
Tue 11:00 PM  65.3°F  59°F  3 mph NE  3 mph  15 mph  0.00"  40%  64%  40°F  46°F  29.90"
Tue 10:00 PM  65.4°F  60°F  6 mph NE  2 mph  9 mph  0.00"  47%  63%  44°F  47°F  29.90"
Tue 09:00 PM  65.6°F  62°F  3 mph E  2 mph  7 mph  0.00"  54%  62%  48°F  48°F  29.88"
Tue 08:00 PM  65.7°F  64°F  calm  3 mph  5 mph  0.00"  57%  58%  50°F  49°F  29.86"
Tue 07:00 PM  66.2°F  68°F  3 mph SW  5 mph  11 mph  0.00"  57%  52%  50°F  49°F  29.85"
Tue 06:00 PM  69.3°F  70°F  3 mph W  5 mph  15 mph  0.00"  49%  49%  49°F  49°F  29.85"
Tue 05:00 PM  70.4°F  72°F  9 mph SW  7 mph  20 mph  0.00"  44%  46%  46°F  49°F  29.83"
Tue 04:00 PM  70.1°F  73°F  9 mph SW  7 mph  21 mph  0.00"  43%  44%  46°F  49°F  29.84"
Tue 03:00 PM  71.4°F  74°F  11 mph W  8 mph  17 mph  0.00"  42%  42%  46°F  49°F  29.86"
Tue 02:00 PM  70.0°F  75°F  8 mph W  7 mph  16 mph  0.00"  44%  42%  46°F  49°F  29.87"
Tue 01:00 PM  69.3°F  74°F  9 mph W  7 mph  15 mph  0.00"  48%  41%  48°F  49°F  29.89"
Tue 12:00 PM  70.3°F  73°F  3 mph SE  6 mph  10 mph  0.00"  37%  42%  42°F  48°F  29.91"
Tue 11:00 AM  66.8°F  70°F  5 mph NE  5 mph  29 mph  0.00"  42%  46%  42°F  48°F  29.91"
Tue 10:00 AM  63.1°F  67°F  12 mph SW  6 mph  38 mph  0.00"  45%  52%  41°F  48°F  29.89"
Tue 09:00 AM  60.2°F  62°F  20 mph SE  4 mph  37 mph  0.00"  54%  60%  43°F  48°F  29.89"
Tue 08:00 AM  58.2°F  58°F  17 mph NE  3 mph  38 mph  0.00"  59%  66%  43°F  47°F  29.89"
Tue 07:00 AM  57.2°F  55°F  19 mph NE  3 mph  35 mph  0.00"  62%  69%  44°F  45°F  29.87"
Tue 06:00 AM  57.5°F  54°F  14 mph NE  3 mph  29 mph  0.00"  62%  69%  44°F  44°F  29.85"
Tue 05:00 AM  58.1°F  54°F  18 mph NE  3 mph  30 mph  0.00"  61%  69%  44°F  44°F  29.84"
Tue 04:00 AM  59.3°F  55°F  15 mph NE  3 mph  29 mph  0.00"  59%  69%  44°F  44°F  29.83"
Tue 03:00 AM  60.2°F  55°F  15 mph NE  3 mph  35 mph  0.00"  57%  69%  44°F  45°F  29.83"
Tue 02:00 AM  60.8°F  56°F  12 mph E  2 mph  18 mph  0.00"  57%  69%  45°F  45°F  29.84"
Tue 01:00 AM  61.2°F  56°F  10 mph S  3 mph  21 mph  0.00"  57%  68%  45°F  45°F  29.85"
Tue 12:00 AM  62.0°F  57°F  9 mph SE  2 mph  22 mph  0.00"  57%  66%  46°F  46°F  29.84"
Mon 11:00 PM  62.3°F  59°F  calm  3 mph  15 mph  0.00"  62%  65%  48°F  46°F  29.84"
Mon 10:00 PM  61.6°F  60°F  2 mph SW  2 mph  8 mph  0.00"  67%  63%  50°F  47°F  29.84"
Mon 09:00 PM  61.8°F  62°F  4 mph N  2 mph  5 mph  0.00"  65%  62%  49°F  48°F  29.83"
Mon 08:00 PM  64.1°F  64°F  1 mph W  3 mph  9 mph  0.00"  61%  59%  50°F  49°F  29.83"
Mon 07:00 PM  66.8°F  68°F  6 mph W  4 mph  11 mph  0.00"  57%  52%  51°F  49°F  29.82"

  1. Current weather data. No green row appears if the current weather data is also the high or low for the current day.
  2. High temperature for the current day.
  3. Low temperature for the current day.

The Simi Valley, California weather pages are a service of WeatherCurrents.
Copyright ©Wed Apr 26 06:40:27 PDT 2017  WeatherCurrents. All rights reserved. - Submit questions and comments - Privacy Policy

This page automatically refreshes every 10 minutes.